GOTK

Kédougou Airport

Kédougou, Senegal
METAR GOTK 211600Z 36004KT CAVOK 35/03 Q1011
Observed Flight Rules
Jan-21 @ 16:00 UTC (36 minutes ago) Visual Flight Rules
Wind Visibility Clouds
360° at 4 knots 10,000+ meters
  • Clear skies
Temperatures Readings
Current 35°C / 95°F
Dewpoint 3°C / 37°F
Humidity 13%
Altimeter 29.85" Hg
Pressure 1010.92 hPa
Elevation 167
METAR GOTK 211600Z 36004KT CAVOK 35/03 Q1011
Observed Flight Rules
Jan-21 @ 16:00 UTC
(36 minutes ago)
VFR
Wind Visibility
360° at 4 knots 10,000+ meters
Clouds
  • Clear skies
Temperature Dewpoint
35°C / 95°F 3°C / 37°F
Humidity Altimeter Pressure
13% 29.85" Hg 1010.92 hPa